createdAt,value
2022-10-22T00:01:30.840Z,75.60
2022-10-22T00:04:02.973Z,74.32
2022-10-22T00:06:34.541Z,75.28
2022-10-22T00:09:06.715Z,69.97
2022-10-22T00:11:38.361Z,73.50
2022-10-22T00:14:10.281Z,71.60
2022-10-22T00:19:31.970Z,79.53
2022-10-22T00:22:05.879Z,73.80
2022-10-22T00:24:39.397Z,71.97
2022-10-22T00:27:13.270Z,69.03
2022-10-22T00:29:45.593Z,67.75
2022-10-22T00:32:19.769Z,65.65
2022-10-22T00:34:51.741Z,65.10
2022-10-22T00:37:23.362Z,64.45
2022-10-22T00:39:55.551Z,64.68
2022-10-22T00:42:30.394Z,71.20
2022-10-22T00:45:18.982Z,74.07
2022-10-22T00:47:59.380Z,73.55
2022-10-22T00:50:36.011Z,75.63
2022-10-22T00:53:11.811Z,75.50
2022-10-22T00:55:46.923Z,70.75
2022-10-22T00:58:21.400Z,66.25
2022-10-22T01:00:53.638Z,68.70
2022-10-22T01:03:28.362Z,57.85
2022-10-22T01:06:03.104Z,67.15
2022-10-22T01:08:44.792Z,75.10
2022-10-22T01:11:24.341Z,75.85
2022-10-22T01:14:11.880Z,82.90
2022-10-22T01:16:51.174Z,82.78
2022-10-22T01:19:49.021Z,78.95
2022-10-22T01:22:29.681Z,81.50
2022-10-22T01:25:03.400Z,77.20
2022-10-22T01:27:57.741Z,88.75
2022-10-22T01:30:32.252Z,78.85
2022-10-22T01:33:08.552Z,75.68
2022-10-22T01:35:43.492Z,79.32
2022-10-22T01:38:18.241Z,74.90
2022-10-22T01:40:51.171Z,74.43
2022-10-22T01:43:23.701Z,71.95
2022-10-22T01:46:02.351Z,71.97
2022-10-22T01:48:44.121Z,66.53
2022-10-22T01:51:44.490Z,66.30
2022-10-22T01:54:30.889Z,70.88
2022-10-22T01:57:12.092Z,76.50
2022-10-22T02:00:04.151Z,72.90
2022-10-22T02:02:52.893Z,77.72
2022-10-22T02:05:28.334Z,75.05
2022-10-22T02:08:04.961Z,81.38
2022-10-22T02:10:41.261Z,76.13
2022-10-22T02:13:19.041Z,77.80
2022-10-22T02:15:54.801Z,80.63
2022-10-22T02:18:36.404Z,74.55
2022-10-22T02:21:18.534Z,84.53
2022-10-22T02:23:51.523Z,70.47
2022-10-22T02:26:28.291Z,70.18
2022-10-22T02:29:06.321Z,69.50
2022-10-22T02:31:42.508Z,67.22
2022-10-22T02:34:22.812Z,76.05
2022-10-22T02:36:56.242Z,75.80
2022-10-22T02:39:29.821Z,72.57
2022-10-22T02:42:01.861Z,74.75
2022-10-22T02:44:33.589Z,74.20
2022-10-22T02:47:05.700Z,73.85
2022-10-22T02:49:39.891Z,78.90
2022-10-22T02:52:11.854Z,85.72
2022-10-22T02:54:43.520Z,84.38
2022-10-22T02:57:15.616Z,81.07
2022-10-22T02:59:47.222Z,82.18
2022-10-22T03:02:19.561Z,83.55
2022-10-22T03:04:53.999Z,80.10
2022-10-22T03:07:25.961Z,89.32
2022-10-22T03:09:57.572Z,85.70
2022-10-22T03:12:29.551Z,80.20
2022-10-22T03:15:01.170Z,79.25
2022-10-22T03:17:33.161Z,81.22
2022-10-22T03:20:08.002Z,75.07
2022-10-22T03:22:43.541Z,77.55
2022-10-22T03:25:19.699Z,79.90
2022-10-22T03:27:53.461Z,78.15
2022-10-22T03:30:25.121Z,85.95
2022-10-22T03:32:57.150Z,75.45
2022-10-22T03:35:31.549Z,79.10
2022-10-22T03:38:04.550Z,75.55
2022-10-22T03:40:36.331Z,76.40
2022-10-22T03:43:08.400Z,74.13
2022-10-22T03:45:39.963Z,69.95
2022-10-22T03:48:12.141Z,73.38
2022-10-22T03:50:46.371Z,77.05
2022-10-22T03:53:18.432Z,66.68
2022-10-22T03:55:50.202Z,69.80
2022-10-22T03:58:22.223Z,76.40
2022-10-22T04:00:53.835Z,76.18
2022-10-22T04:03:46.088Z,74.47
2022-10-22T04:06:20.651Z,78.25
2022-10-22T04:08:53.000Z,69.38
2022-10-22T04:11:24.669Z,74.82
2022-10-22T04:13:56.703Z,70.20
2022-10-22T04:16:31.170Z,67.40
2022-10-22T04:19:03.120Z,84.05
2022-10-22T04:21:37.772Z,77.45
2022-10-22T04:24:09.891Z,70.07
2022-10-22T04:26:41.292Z,70.70
2022-10-22T04:29:16.050Z,69.90
2022-10-22T04:31:47.881Z,68.00
2022-10-22T04:34:19.633Z,70.22
2022-10-22T04:36:53.482Z,58.88
2022-10-22T04:39:25.272Z,71.70
2022-10-22T04:41:56.670Z,69.30
2022-10-22T04:44:28.429Z,71.03
2022-10-22T04:46:59.721Z,65.35
2022-10-22T04:49:31.531Z,65.20
2022-10-22T04:52:05.471Z,57.78
2022-10-22T04:54:37.403Z,60.22
2022-10-22T04:57:08.910Z,57.20
2022-10-22T04:59:40.890Z,60.00
2022-10-22T05:02:12.212Z,63.72
2022-10-22T05:04:44.200Z,63.08
2022-10-22T05:07:18.453Z,59.47
2022-10-22T05:09:50.081Z,63.85
2022-10-22T05:12:21.422Z,67.90
2022-10-22T05:14:53.140Z,64.82
2022-10-22T05:17:24.459Z,67.35
2022-10-22T05:19:56.170Z,65.20
2022-10-22T05:22:29.992Z,72.38
2022-10-22T05:25:01.885Z,74.05
2022-10-22T05:27:33.312Z,69.60
2022-10-22T05:30:05.021Z,68.63
2022-10-22T05:32:38.140Z,77.93
2022-10-22T05:35:10.253Z,69.93
2022-10-22T05:37:46.370Z,81.00
2022-10-22T05:40:30.205Z,88.72
2022-10-22T05:43:02.701Z,76.70
2022-10-22T05:45:34.360Z,82.22
2022-10-22T05:48:05.631Z,71.15
2022-10-22T05:50:39.241Z,74.30
2022-10-22T05:53:13.881Z,71.65
2022-10-22T05:55:45.550Z,77.35
2022-10-22T05:58:17.331Z,76.82
2022-10-22T06:00:49.050Z,69.93
2022-10-22T06:03:20.340Z,77.20
2022-10-22T06:05:52.013Z,70.80
2022-10-22T06:08:26.202Z,76.22
2022-10-22T06:10:58.022Z,71.55
2022-10-22T06:13:29.501Z,66.20
2022-10-22T06:16:01.450Z,75.68
2022-10-22T06:18:32.779Z,79.82
2022-10-22T06:21:08.961Z,82.75
2022-10-22T06:23:43.823Z,88.97
2022-10-22T06:26:18.243Z,75.07
2022-10-22T06:28:49.821Z,77.50
2022-10-22T06:31:22.061Z,71.97
2022-10-22T06:33:53.682Z,77.40
2022-10-22T06:36:27.822Z,72.78
2022-10-22T06:39:02.221Z,79.95
2022-10-22T06:41:34.557Z,65.97
2022-10-22T06:44:06.150Z,70.10
2022-10-22T06:46:41.226Z,62.75
2022-10-22T06:49:17.421Z,65.28
2022-10-22T06:51:52.551Z,73.90
2022-10-22T06:54:27.455Z,62.15
2022-10-22T06:56:59.471Z,54.95
2022-10-22T06:59:31.081Z,56.78
2022-10-22T07:02:03.078Z,59.78
2022-10-22T07:04:34.681Z,53.42
2022-10-22T07:07:06.614Z,54.92
2022-10-22T07:09:40.938Z,56.67
2022-10-22T07:12:14.034Z,56.20
2022-10-22T07:14:45.750Z,49.25
2022-10-22T07:17:17.802Z,47.70
2022-10-22T07:19:51.264Z,43.83
2022-10-22T07:22:24.222Z,43.05
2022-10-22T07:30:48.060Z,49.35
2022-10-22T07:33:20.481Z,48.92
2022-10-22T07:35:52.262Z,49.03
2022-10-22T07:38:24.461Z,46.20
2022-10-22T07:40:59.361Z,49.55
2022-10-22T07:43:31.661Z,49.75
2022-10-22T07:46:03.420Z,40.15
2022-10-22T07:48:35.587Z,47.33
2022-10-22T07:51:08.022Z,54.17
2022-10-22T07:53:40.600Z,36.25
2022-10-22T07:56:15.241Z,38.75
2022-10-22T07:58:47.491Z,42.80
2022-10-22T08:01:19.319Z,44.53
2022-10-22T08:03:52.082Z,46.47
2022-10-22T08:06:23.844Z,40.55
2022-10-22T08:08:56.026Z,45.70
2022-10-22T08:11:31.330Z,50.63
2022-10-22T08:14:03.567Z,49.33
2022-10-22T08:16:35.361Z,45.53
2022-10-22T08:19:07.761Z,53.67
2022-10-22T08:21:39.503Z,40.60
2022-10-22T08:24:11.849Z,51.97
2022-10-22T08:26:50.489Z,48.78
2022-10-22T08:29:23.540Z,41.70
2022-10-22T08:31:55.988Z,43.50
2022-10-22T08:34:28.302Z,44.55
2022-10-22T08:37:00.182Z,42.13
2022-10-22T08:39:32.541Z,39.15
2022-10-22T08:42:24.222Z,45.53
2022-10-22T08:45:11.761Z,45.30
2022-10-22T08:48:02.083Z,46.00
2022-10-22T08:50:38.821Z,38.63
2022-10-22T08:53:17.610Z,38.70
2022-10-22T08:55:50.431Z,37.63
2022-10-22T08:58:31.064Z,41.88
2022-10-22T09:01:05.313Z,42.78
2022-10-22T09:03:48.241Z,39.70
2022-10-22T09:06:24.429Z,39.42
2022-10-22T09:08:57.869Z,39.85
2022-10-22T09:11:33.722Z,37.17
2022-10-22T09:14:09.229Z,41.53
2022-10-22T09:17:01.629Z,41.03
2022-10-22T09:19:38.983Z,36.20
2022-10-22T09:22:21.701Z,37.90
2022-10-22T09:25:01.218Z,35.85
2022-10-22T09:27:34.754Z,37.80
2022-10-22T09:30:10.872Z,39.22
2022-10-22T09:32:43.474Z,37.30
2022-10-22T09:35:16.412Z,33.30
2022-10-22T09:37:53.892Z,35.65
2022-10-22T09:40:25.912Z,31.60
2022-10-22T09:42:57.892Z,33.92
2022-10-22T09:45:32.011Z,28.35
2022-10-22T09:48:15.233Z,30.92
2022-10-22T09:50:48.853Z,28.95
2022-10-22T09:53:25.155Z,33.92
2022-10-22T09:55:58.452Z,28.08
2022-10-22T09:58:30.922Z,36.20
2022-10-22T10:01:05.552Z,34.17
2022-10-22T10:03:37.851Z,31.30
2022-10-22T10:06:10.372Z,33.20
2022-10-22T10:08:42.376Z,34.08
2022-10-22T10:11:22.771Z,29.48
2022-10-22T10:14:10.134Z,31.55
2022-10-22T10:16:53.119Z,33.30
2022-10-22T10:19:37.052Z,32.60
2022-10-22T10:22:16.524Z,30.85
2022-10-22T10:25:23.104Z,35.33
2022-10-22T10:28:02.423Z,32.47
2022-10-22T10:30:36.426Z,31.98
2022-10-22T10:33:24.785Z,36.97
2022-10-22T10:36:30.965Z,32.92
2022-10-22T10:39:08.172Z,32.22
2022-10-22T10:41:53.006Z,36.35
2022-10-22T10:44:50.685Z,33.78
2022-10-22T10:47:35.697Z,35.83
2022-10-22T10:50:22.195Z,36.50
2022-10-22T10:53:05.866Z,35.63
2022-10-22T10:55:56.125Z,33.38
2022-10-22T10:58:37.625Z,38.60
2022-10-22T11:01:21.439Z,38.55
2022-10-22T11:04:24.326Z,36.45
2022-10-22T11:07:11.033Z,36.15
2022-10-22T11:09:47.925Z,29.63
2022-10-22T11:12:25.606Z,34.00
2022-10-22T11:15:05.684Z,32.17
2022-10-22T11:17:42.585Z,37.92
2022-10-22T11:20:21.586Z,30.77
2022-10-22T11:23:18.946Z,29.70
2022-10-22T11:25:53.253Z,30.15
2022-10-22T11:28:30.966Z,30.58
2022-10-22T11:31:06.944Z,25.65
2022-10-22T11:33:47.106Z,24.25
2022-10-22T11:36:21.689Z,28.38
2022-10-22T11:38:56.064Z,23.55
2022-10-22T11:41:32.189Z,26.30
2022-10-22T11:44:15.110Z,28.48
2022-10-22T11:46:56.846Z,26.67
2022-10-22T11:49:30.416Z,26.95
2022-10-22T11:52:28.303Z,25.48
2022-10-22T11:55:05.648Z,25.10
2022-10-22T11:57:40.585Z,26.52
2022-10-22T12:00:35.949Z,28.58
2022-10-22T12:03:36.767Z,21.77
2022-10-22T12:06:29.931Z,24.90
2022-10-22T12:09:06.003Z,26.67
2022-10-22T12:11:55.861Z,20.05
2022-10-22T12:14:33.222Z,23.23
2022-10-22T12:17:30.670Z,20.90
2022-10-22T12:20:13.757Z,20.70
2022-10-22T12:22:54.859Z,19.63
2022-10-22T12:25:35.896Z,16.63
2022-10-22T12:28:19.216Z,16.50
2022-10-22T12:30:52.806Z,14.93
2022-10-22T12:33:27.107Z,17.77
2022-10-22T12:36:04.226Z,15.40
2022-10-22T12:38:48.585Z,18.85
2022-10-22T12:41:25.863Z,16.08
2022-10-22T12:44:05.819Z,17.02
2022-10-22T12:46:38.625Z,15.57
2022-10-22T12:49:27.311Z,11.88
2022-10-22T12:51:58.573Z,15.25
2022-10-22T12:54:38.367Z,11.13
2022-10-22T12:57:15.823Z,9.45
2022-10-22T12:59:55.043Z,12.07
2022-10-22T13:02:31.015Z,13.52
2022-10-22T13:05:30.583Z,9.25
2022-10-22T13:08:20.729Z,9.73
2022-10-22T13:10:54.356Z,10.07
2022-10-22T13:13:35.347Z,13.25
2022-10-22T13:16:24.972Z,9.93
2022-10-22T13:18:57.789Z,10.65
2022-10-22T13:21:38.263Z,11.07
2022-10-22T13:24:24.605Z,11.65
2022-10-22T13:26:58.060Z,12.45
2022-10-22T13:29:30.008Z,9.13
2022-10-22T13:32:04.273Z,10.75
2022-10-22T13:34:36.853Z,12.05
2022-10-22T13:37:12.110Z,7.90
2022-10-22T13:44:27.583Z,9.57
2022-10-22T13:46:59.458Z,7.75
2022-10-22T13:49:33.702Z,9.30
2022-10-22T13:52:05.685Z,15.35
2022-10-22T13:54:38.269Z,9.40
2022-10-22T13:57:12.220Z,8.77
2022-10-22T13:59:43.744Z,9.05
2022-10-22T14:02:16.707Z,10.02
2022-10-22T14:04:53.007Z,8.85
2022-10-22T14:07:25.043Z,12.20
2022-10-22T14:09:56.793Z,11.07
2022-10-22T14:12:28.822Z,11.27
2022-10-22T14:15:00.567Z,11.35
2022-10-22T14:17:33.464Z,13.40
2022-10-22T14:20:08.161Z,14.90
2022-10-22T14:22:40.109Z,15.07
2022-10-22T14:25:16.039Z,13.05
2022-10-22T14:27:48.338Z,21.42
2022-10-22T14:30:22.099Z,15.20
2022-10-22T14:32:54.537Z,14.00
2022-10-22T14:35:29.161Z,11.27
2022-10-22T14:38:01.119Z,8.20
2022-10-22T14:40:32.872Z,11.15
2022-10-22T14:43:04.702Z,9.70
2022-10-22T14:45:36.284Z,9.32
2022-10-22T14:48:08.853Z,11.85
2022-10-22T14:50:43.338Z,11.23
2022-10-22T14:53:17.020Z,16.02
2022-10-22T14:55:51.770Z,14.75
2022-10-22T14:58:23.692Z,22.55
2022-10-22T15:00:55.408Z,14.13
2022-10-22T15:03:27.512Z,15.25
2022-10-22T15:06:01.850Z,14.88
2022-10-22T15:08:34.393Z,8.95
2022-10-22T15:11:07.812Z,12.05
2022-10-22T15:13:41.488Z,17.33
2022-10-22T15:16:16.291Z,12.18
2022-10-22T15:18:48.568Z,11.18
2022-10-22T15:21:24.971Z,11.52
2022-10-22T15:23:57.248Z,15.77
2022-10-22T15:26:29.511Z,23.52
2022-10-22T15:29:01.835Z,18.42
2022-10-22T15:31:48.926Z,17.73
2022-10-22T15:34:26.028Z,17.25
2022-10-22T15:37:02.507Z,16.17
2022-10-22T15:39:35.533Z,17.23
2022-10-22T15:42:10.682Z,14.43
2022-10-22T15:44:43.428Z,17.35
2022-10-22T15:47:15.371Z,16.67
2022-10-22T15:49:47.987Z,15.55
2022-10-22T15:52:22.765Z,18.15
2022-10-22T15:54:54.429Z,17.67
2022-10-22T15:57:25.776Z,19.00
2022-10-22T16:00:11.852Z,20.02
2022-10-22T16:02:45.265Z,18.98
2022-10-22T16:05:17.765Z,18.40
2022-10-22T16:07:51.615Z,16.40
2022-10-22T16:10:22.919Z,15.75
2022-10-22T16:12:54.741Z,14.10
2022-10-22T16:15:25.845Z,16.60
2022-10-22T16:17:56.608Z,12.38
2022-10-22T16:20:30.114Z,12.88
2022-10-22T16:23:03.599Z,17.08
2022-10-22T16:25:40.961Z,15.55
2022-10-22T16:28:13.790Z,16.83
2022-10-22T16:30:45.430Z,20.10
2022-10-22T16:33:16.182Z,19.85
2022-10-22T16:35:47.314Z,17.60
2022-10-22T16:38:23.801Z,18.98
2022-10-22T16:40:56.352Z,19.63
2022-10-22T16:43:29.941Z,22.15
2022-10-22T16:46:01.151Z,16.25
2022-10-22T16:48:32.740Z,17.60
2022-10-22T16:51:12.571Z,20.05
2022-10-22T16:53:46.476Z,20.70
2022-10-22T16:56:27.032Z,18.58
2022-10-22T16:59:01.256Z,18.38
2022-10-22T17:01:41.924Z,27.42
2022-10-22T17:04:21.703Z,23.48
2022-10-22T17:06:58.091Z,20.77
2022-10-22T17:09:32.693Z,18.45
2022-10-22T17:12:04.531Z,25.92
2022-10-22T17:14:35.997Z,21.65
2022-10-22T17:17:08.093Z,21.45
2022-10-22T17:19:41.490Z,21.80
2022-10-22T17:22:16.229Z,24.73
2022-10-22T17:25:11.217Z,21.50
2022-10-22T17:27:43.942Z,22.10
2022-10-22T17:30:23.477Z,19.05
2022-10-22T17:32:59.190Z,19.85
2022-10-22T17:35:31.081Z,21.73
2022-10-22T17:38:03.212Z,21.48
2022-10-22T17:40:39.376Z,22.33
2022-10-22T17:43:11.551Z,18.65
2022-10-22T17:45:43.571Z,21.33
2022-10-22T17:48:15.852Z,17.05
2022-10-22T17:50:50.393Z,16.35
2022-10-22T17:53:24.370Z,23.05
2022-10-22T17:56:07.453Z,17.70
2022-10-22T17:58:40.471Z,23.75
2022-10-22T18:01:20.956Z,20.63
2022-10-22T18:03:54.294Z,20.75
2022-10-22T18:06:26.611Z,23.70
2022-10-22T18:08:59.041Z,18.38
2022-10-22T18:11:36.635Z,18.45
2022-10-22T18:14:09.412Z,19.80
2022-10-22T18:16:42.573Z,22.48
2022-10-22T18:19:17.675Z,20.50
2022-10-22T18:21:50.032Z,22.90
2022-10-22T18:24:22.754Z,23.10
2022-10-22T18:26:58.411Z,25.48
2022-10-22T18:29:31.038Z,27.17
2022-10-22T18:32:09.422Z,24.40
2022-10-22T18:34:45.611Z,16.90
2022-10-22T18:37:18.091Z,16.60
2022-10-22T18:39:50.490Z,13.25
2022-10-22T18:42:27.414Z,13.55
2022-10-22T18:45:03.451Z,12.85
2022-10-22T18:47:35.712Z,17.73
2022-10-22T18:50:09.134Z,8.27
2022-10-22T18:52:42.632Z,13.57
2022-10-22T18:55:15.511Z,13.18
2022-10-22T18:57:49.835Z,13.35
2022-10-22T19:00:21.710Z,12.75
2022-10-22T19:02:53.096Z,12.25
2022-10-22T19:05:24.957Z,13.65
2022-10-22T19:07:59.862Z,15.48
2022-10-22T19:10:31.754Z,17.58
2022-10-22T19:13:11.118Z,15.43
2022-10-22T19:15:43.169Z,20.42
2022-10-22T19:18:16.121Z,18.10
2022-10-22T19:20:50.812Z,17.75
2022-10-22T19:23:22.059Z,18.17
2022-10-22T19:26:03.431Z,20.85
2022-10-22T19:28:37.838Z,21.48
2022-10-22T19:31:10.575Z,15.73
2022-10-22T19:33:43.343Z,16.17
2022-10-22T19:36:19.837Z,17.25
2022-10-22T19:38:52.010Z,15.98
2022-10-22T19:41:27.073Z,15.48
2022-10-22T19:44:03.627Z,17.63
2022-10-22T19:46:36.229Z,16.08
2022-10-22T19:49:08.989Z,13.23
2022-10-22T19:51:41.329Z,12.77
2022-10-22T19:54:20.909Z,11.40
2022-10-22T19:56:58.330Z,11.30
2022-10-22T19:59:34.450Z,17.65
2022-10-22T20:02:07.007Z,13.95
2022-10-22T20:04:50.089Z,17.02
2022-10-22T20:07:23.316Z,14.98
2022-10-22T20:09:55.607Z,17.50
2022-10-22T20:12:39.750Z,13.98
2022-10-22T20:15:14.949Z,18.05
2022-10-22T20:17:47.748Z,14.50
2022-10-22T20:20:21.962Z,13.48
2022-10-22T20:22:58.467Z,14.13
2022-10-22T20:25:30.729Z,18.20
2022-10-22T20:28:03.248Z,16.05
2022-10-22T20:30:38.427Z,19.52
2022-10-22T20:33:10.907Z,17.15
2022-10-22T20:35:43.288Z,15.20
2022-10-22T20:38:17.968Z,12.25
2022-10-22T20:40:50.167Z,13.32
2022-10-22T20:43:22.849Z,14.90
2022-10-22T20:45:57.627Z,18.75
2022-10-22T20:48:31.807Z,16.55
2022-10-22T20:51:05.369Z,12.75
2022-10-22T20:53:37.497Z,12.07
2022-10-22T20:56:10.916Z,11.40
2022-10-22T20:58:53.986Z,10.85
2022-10-22T21:01:28.705Z,10.40
2022-10-22T21:04:00.098Z,8.02
2022-10-22T21:06:33.233Z,9.80
2022-10-22T21:09:05.782Z,12.18
2022-10-22T21:11:37.740Z,10.18
2022-10-22T21:14:11.098Z,12.45
2022-10-22T21:16:49.526Z,8.38
2022-10-22T21:19:22.705Z,11.23
2022-10-22T21:21:53.815Z,14.80
2022-10-22T21:24:26.643Z,14.50
2022-10-22T21:26:57.871Z,11.77
2022-10-22T21:29:29.297Z,12.50
2022-10-22T21:32:03.014Z,13.32
2022-10-22T21:34:38.825Z,12.73
2022-10-22T21:37:10.584Z,15.40
2022-10-22T21:39:42.274Z,13.50
2022-10-22T21:42:18.076Z,13.13
2022-10-22T21:44:49.699Z,13.18
2022-10-22T21:47:23.676Z,14.25
2022-10-22T21:49:56.785Z,13.63
2022-10-22T21:52:28.755Z,12.75
2022-10-22T21:55:00.917Z,15.13
2022-10-22T21:57:32.887Z,9.95
2022-10-22T22:00:05.240Z,12.40
2022-10-22T22:02:40.047Z,10.82
2022-10-22T22:05:13.336Z,13.88
2022-10-22T22:07:45.257Z,12.75
2022-10-22T22:10:17.537Z,18.05
2022-10-22T22:12:49.395Z,13.65
2022-10-22T22:15:22.997Z,14.43
2022-10-22T22:17:57.583Z,12.82
2022-10-22T22:20:29.935Z,14.10
2022-10-22T22:23:01.795Z,14.73
2022-10-22T22:25:34.003Z,12.13
2022-10-22T22:28:05.974Z,15.45
2022-10-22T22:30:38.374Z,13.50
2022-10-22T22:33:12.974Z,15.07
2022-10-22T22:35:45.478Z,15.60
2022-10-22T22:38:17.515Z,14.82
2022-10-22T22:40:49.714Z,20.73
2022-10-22T22:43:21.556Z,16.73
2022-10-22T22:46:02.497Z,18.38
2022-10-22T22:48:37.617Z,17.95
2022-10-22T22:51:10.955Z,18.90
2022-10-22T22:53:42.898Z,15.52
2022-10-22T22:56:16.756Z,18.00
2022-10-22T22:59:09.015Z,16.70
2022-10-22T23:01:45.633Z,20.63
2022-10-22T23:04:23.893Z,17.17
2022-10-22T23:06:58.710Z,16.50
2022-10-22T23:10:07.477Z,15.02
2022-10-22T23:12:39.884Z,14.35
2022-10-22T23:15:12.719Z,17.73
2022-10-22T23:17:45.020Z,18.42
2022-10-22T23:20:19.618Z,23.33
2022-10-22T23:22:51.879Z,22.58
2022-10-22T23:25:23.765Z,18.25
2022-10-22T23:27:55.938Z,18.83
2022-10-22T23:30:27.997Z,18.92
2022-10-22T23:33:00.084Z,22.33
2022-10-22T23:35:34.696Z,19.77
2022-10-22T23:38:06.859Z,20.65
2022-10-22T23:40:38.757Z,19.58
2022-10-22T23:43:12.038Z,24.95
2022-10-22T23:45:43.819Z,20.60
2022-10-22T23:48:15.977Z,22.08
2022-10-22T23:50:50.946Z,25.15
2022-10-22T23:53:23.077Z,22.38
2022-10-22T23:55:54.937Z,20.35
2022-10-22T23:58:27.097Z,19.00
